sensor_id;sensor_type;location;lat;lon;timestamp;temperature;humidity
10678;DHT22;5387;48.722;9.110;2023-03-29T00:01:59;4.80;99.90
10678;DHT22;5387;48.722;9.110;2023-03-29T00:04:26;4.70;99.90
10678;DHT22;5387;48.722;9.110;2023-03-29T00:06:59;4.70;99.90
10678;DHT22;5387;48.722;9.110;2023-03-29T00:09:29;4.80;99.90
10678;DHT22;5387;48.722;9.110;2023-03-29T00:11:56;4.80;99.90
10678;DHT22;5387;48.722;9.110;2023-03-29T00:14:23;4.90;99.90
10678;DHT22;5387;48.722;9.110;2023-03-29T00:16:51;4.80;99.90
10678;DHT22;5387;48.722;9.110;2023-03-29T00:19:17;4.80;99.90
10678;DHT22;5387;48.722;9.110;2023-03-29T00:21:44;4.80;99.90
10678;DHT22;5387;48.722;9.110;2023-03-29T00:24:12;4.80;99.90
10678;DHT22;5387;48.722;9.110;2023-03-29T00:26:39;4.70;99.90
10678;DHT22;5387;48.722;9.110;2023-03-29T00:29:06;4.70;99.90
10678;DHT22;5387;48.722;9.110;2023-03-29T00:31:33;4.70;99.90
10678;DHT22;5387;48.722;9.110;2023-03-29T00:33:59;4.70;99.90
10678;DHT22;5387;48.722;9.110;2023-03-29T00:36:26;4.70;99.90
10678;DHT22;5387;48.722;9.110;2023-03-29T00:38:55;4.70;99.90
10678;DHT22;5387;48.722;9.110;2023-03-29T00:41:23;4.70;99.90
10678;DHT22;5387;48.722;9.110;2023-03-29T00:43:52;4.90;99.90
10678;DHT22;5387;48.722;9.110;2023-03-29T00:46:20;4.70;99.90
10678;DHT22;5387;48.722;9.110;2023-03-29T00:48:47;4.70;99.90
10678;DHT22;5387;48.722;9.110;2023-03-29T00:51:15;4.70;99.90
10678;DHT22;5387;48.722;9.110;2023-03-29T00:53:47;4.70;99.90
10678;DHT22;5387;48.722;9.110;2023-03-29T00:56:18;4.70;99.90
10678;DHT22;5387;48.722;9.110;2023-03-29T00:58:50;4.70;99.90
10678;DHT22;5387;48.722;9.110;2023-03-29T01:01:22;4.70;99.90
10678;DHT22;5387;48.722;9.110;2023-03-29T01:03:54;4.70;99.90
10678;DHT22;5387;48.722;9.110;2023-03-29T01:06:23;4.60;99.90
10678;DHT22;5387;48.722;9.110;2023-03-29T01:08:53;4.70;99.90
10678;DHT22;5387;48.722;9.110;2023-03-29T01:11:23;4.60;99.90
10678;DHT22;5387;48.722;9.110;2023-03-29T01:13:56;4.90;99.90
10678;DHT22;5387;48.722;9.110;2023-03-29T01:16:25;4.60;99.90
10678;DHT22;5387;48.722;9.110;2023-03-29T01:18:55;4.60;99.90
10678;DHT22;5387;48.722;9.110;2023-03-29T01:21:27;4.70;99.90
10678;DHT22;5387;48.722;9.110;2023-03-29T01:24:13;4.70;99.90
10678;DHT22;5387;48.722;9.110;2023-03-29T01:26:52;4.70;99.90
10678;DHT22;5387;48.722;9.110;2023-03-29T01:29:24;4.70;99.90
10678;DHT22;5387;48.722;9.110;2023-03-29T01:31:56;4.70;99.90
10678;DHT22;5387;48.722;9.110;2023-03-29T01:34:29;4.60;99.90
10678;DHT22;5387;48.722;9.110;2023-03-29T01:37:01;4.70;99.90
10678;DHT22;5387;48.722;9.110;2023-03-29T01:39:30;4.70;99.90
10678;DHT22;5387;48.722;9.110;2023-03-29T01:42:09;4.70;99.90
10678;DHT22;5387;48.722;9.110;2023-03-29T01:44:46;4.70;99.90
10678;DHT22;5387;48.722;9.110;2023-03-29T01:47:20;4.70;99.90
10678;DHT22;5387;48.722;9.110;2023-03-29T01:49:56;4.60;99.90
10678;DHT22;5387;48.722;9.110;2023-03-29T01:52:26;4.60;99.90
10678;DHT22;5387;48.722;9.110;2023-03-29T01:54:59;4.70;99.90
10678;DHT22;5387;48.722;9.110;2023-03-29T01:57:27;4.60;99.90
10678;DHT22;5387;48.722;9.110;2023-03-29T01:59:57;4.60;99.90
10678;DHT22;5387;48.722;9.110;2023-03-29T02:02:27;4.60;99.90
10678;DHT22;5387;48.722;9.110;2023-03-29T02:04:56;4.60;99.90
10678;DHT22;5387;48.722;9.110;2023-03-29T02:07:25;4.60;99.90
10678;DHT22;5387;48.722;9.110;2023-03-29T02:09:55;4.60;99.90
10678;DHT22;5387;48.722;9.110;2023-03-29T02:12:23;4.60;99.90
10678;DHT22;5387;48.722;9.110;2023-03-29T02:14:50;4.40;99.90
10678;DHT22;5387;48.722;9.110;2023-03-29T02:17:20;4.50;99.90
10678;DHT22;5387;48.722;9.110;2023-03-29T02:19:49;4.50;99.90
10678;DHT22;5387;48.722;9.110;2023-03-29T02:22:22;4.30;99.90
10678;DHT22;5387;48.722;9.110;2023-03-29T02:24:52;4.30;99.90
10678;DHT22;5387;48.722;9.110;2023-03-29T02:27:23;4.20;99.90
10678;DHT22;5387;48.722;9.110;2023-03-29T02:29:50;4.20;99.90
10678;DHT22;5387;48.722;9.110;2023-03-29T02:32:22;4.30;99.90
10678;DHT22;5387;48.722;9.110;2023-03-29T02:34:56;4.30;99.90
10678;DHT22;5387;48.722;9.110;2023-03-29T02:37:25;4.30;99.90
10678;DHT22;5387;48.722;9.110;2023-03-29T02:39:55;4.30;99.90
10678;DHT22;5387;48.722;9.110;2023-03-29T02:42:23;4.30;99.90
10678;DHT22;5387;48.722;9.110;2023-03-29T02:44:54;4.30;99.90
10678;DHT22;5387;48.722;9.110;2023-03-29T02:47:27;4.40;99.90
10678;DHT22;5387;48.722;9.110;2023-03-29T02:49:56;4.20;99.90
10678;DHT22;5387;48.722;9.110;2023-03-29T02:52:25;4.20;99.90
10678;DHT22;5387;48.722;9.110;2023-03-29T02:54:54;4.20;99.90
10678;DHT22;5387;48.722;9.110;2023-03-29T02:57:21;4.00;99.90
10678;DHT22;5387;48.722;9.110;2023-03-29T02:59:51;4.00;99.90
10678;DHT22;5387;48.722;9.110;2023-03-29T03:02:18;4.00;99.90
10678;DHT22;5387;48.722;9.110;2023-03-29T03:04:46;4.10;99.90
10678;DHT22;5387;48.722;9.110;2023-03-29T03:07:13;4.00;99.90
10678;DHT22;5387;48.722;9.110;2023-03-29T03:09:40;4.10;99.90
10678;DHT22;5387;48.722;9.110;2023-03-29T03:12:07;4.20;99.90
10678;DHT22;5387;48.722;9.110;2023-03-29T03:14:34;4.20;99.90
10678;DHT22;5387;48.722;9.110;2023-03-29T03:17:00;4.40;99.90
10678;DHT22;5387;48.722;9.110;2023-03-29T03:19:27;4.50;99.90
10678;DHT22;5387;48.722;9.110;2023-03-29T03:21:55;4.60;99.90
10678;DHT22;5387;48.722;9.110;2023-03-29T03:24:22;4.60;99.90
10678;DHT22;5387;48.722;9.110;2023-03-29T03:26:49;4.80;99.90
10678;DHT22;5387;48.722;9.110;2023-03-29T03:29:16;4.90;99.90
10678;DHT22;5387;48.722;9.110;2023-03-29T03:31:43;5.20;99.90
10678;DHT22;5387;48.722;9.110;2023-03-29T03:34:10;5.20;99.90
10678;DHT22;5387;48.722;9.110;2023-03-29T03:36:37;5.10;99.90
10678;DHT22;5387;48.722;9.110;2023-03-29T03:39:05;5.30;99.90
10678;DHT22;5387;48.722;9.110;2023-03-29T03:41:32;5.30;99.90
10678;DHT22;5387;48.722;9.110;2023-03-29T03:44:00;5.40;99.90
10678;DHT22;5387;48.722;9.110;2023-03-29T03:46:27;5.40;99.90
10678;DHT22;5387;48.722;9.110;2023-03-29T03:48:53;5.40;99.90
10678;DHT22;5387;48.722;9.110;2023-03-29T03:51:20;5.40;99.90
10678;DHT22;5387;48.722;9.110;2023-03-29T03:53:47;5.40;99.90
10678;DHT22;5387;48.722;9.110;2023-03-29T03:56:15;5.50;99.90
10678;DHT22;5387;48.722;9.110;2023-03-29T03:58:42;5.60;99.90
10678;DHT22;5387;48.722;9.110;2023-03-29T04:01:09;5.80;99.90
10678;DHT22;5387;48.722;9.110;2023-03-29T04:03:36;5.70;99.90
10678;DHT22;5387;48.722;9.110;2023-03-29T04:06:04;5.70;99.90
10678;DHT22;5387;48.722;9.110;2023-03-29T04:08:31;5.70;99.90
10678;DHT22;5387;48.722;9.110;2023-03-29T04:10:58;5.90;99.90
10678;DHT22;5387;48.722;9.110;2023-03-29T04:13:26;5.80;99.90
10678;DHT22;5387;48.722;9.110;2023-03-29T04:15:54;5.70;99.90
10678;DHT22;5387;48.722;9.110;2023-03-29T04:18:22;5.70;99.90
10678;DHT22;5387;48.722;9.110;2023-03-29T04:20:49;5.70;99.90
10678;DHT22;5387;48.722;9.110;2023-03-29T04:23:17;5.90;99.90
10678;DHT22;5387;48.722;9.110;2023-03-29T04:25:44;5.80;99.90
10678;DHT22;5387;48.722;9.110;2023-03-29T04:28:11;5.90;99.90
10678;DHT22;5387;48.722;9.110;2023-03-29T04:30:40;5.90;99.90
10678;DHT22;5387;48.722;9.110;2023-03-29T04:33:06;5.90;99.90
10678;DHT22;5387;48.722;9.110;2023-03-29T04:35:34;6.00;99.90
10678;DHT22;5387;48.722;9.110;2023-03-29T04:38:01;6.00;99.90
10678;DHT22;5387;48.722;9.110;2023-03-29T04:40:28;6.10;99.90
10678;DHT22;5387;48.722;9.110;2023-03-29T04:42:55;6.10;99.90
10678;DHT22;5387;48.722;9.110;2023-03-29T04:45:22;6.20;99.90
10678;DHT22;5387;48.722;9.110;2023-03-29T04:47:51;6.30;99.90
10678;DHT22;5387;48.722;9.110;2023-03-29T04:50:18;6.40;99.90
10678;DHT22;5387;48.722;9.110;2023-03-29T04:52:45;6.50;99.90
10678;DHT22;5387;48.722;9.110;2023-03-29T04:55:12;6.40;99.90
10678;DHT22;5387;48.722;9.110;2023-03-29T04:57:38;6.50;99.90
10678;DHT22;5387;48.722;9.110;2023-03-29T05:00:06;6.50;99.90
10678;DHT22;5387;48.722;9.110;2023-03-29T05:02:40;6.60;99.90
10678;DHT22;5387;48.722;9.110;2023-03-29T05:05:08;6.60;99.90
10678;DHT22;5387;48.722;9.110;2023-03-29T05:07:36;6.50;99.90
10678;DHT22;5387;48.722;9.110;2023-03-29T05:10:03;6.50;99.90
10678;DHT22;5387;48.722;9.110;2023-03-29T05:12:31;6.40;99.90
10678;DHT22;5387;48.722;9.110;2023-03-29T05:14:57;6.40;99.90
10678;DHT22;5387;48.722;9.110;2023-03-29T05:17:24;6.40;99.90
10678;DHT22;5387;48.722;9.110;2023-03-29T05:19:51;6.40;99.90
10678;DHT22;5387;48.722;9.110;2023-03-29T05:22:20;6.50;99.90
10678;DHT22;5387;48.722;9.110;2023-03-29T05:24:48;6.50;99.90
10678;DHT22;5387;48.722;9.110;2023-03-29T05:27:16;6.60;99.90
10678;DHT22;5387;48.722;9.110;2023-03-29T05:29:43;6.60;99.90
10678;DHT22;5387;48.722;9.110;2023-03-29T05:32:10;6.60;99.90
10678;DHT22;5387;48.722;9.110;2023-03-29T05:34:37;6.60;99.90
10678;DHT22;5387;48.722;9.110;2023-03-29T05:37:04;6.60;99.90
10678;DHT22;5387;48.722;9.110;2023-03-29T05:39:33;6.70;99.90
10678;DHT22;5387;48.722;9.110;2023-03-29T05:42:02;6.70;99.90
10678;DHT22;5387;48.722;9.110;2023-03-29T05:44:30;6.70;99.90
10678;DHT22;5387;48.722;9.110;2023-03-29T05:46:57;6.70;99.90
10678;DHT22;5387;48.722;9.110;2023-03-29T05:49:24;6.90;99.90
10678;DHT22;5387;48.722;9.110;2023-03-29T05:51:51;6.90;99.90
10678;DHT22;5387;48.722;9.110;2023-03-29T05:54:21;6.70;99.90
10678;DHT22;5387;48.722;9.110;2023-03-29T05:56:49;6.70;99.90
10678;DHT22;5387;48.722;9.110;2023-03-29T05:59:16;6.80;99.90
10678;DHT22;5387;48.722;9.110;2023-03-29T06:01:44;6.90;99.90
10678;DHT22;5387;48.722;9.110;2023-03-29T06:04:11;6.90;99.90
10678;DHT22;5387;48.722;9.110;2023-03-29T06:06:38;7.10;99.90
10678;DHT22;5387;48.722;9.110;2023-03-29T06:09:05;7.20;99.90
10678;DHT22;5387;48.722;9.110;2023-03-29T06:11:31;7.40;99.90
10678;DHT22;5387;48.722;9.110;2023-03-29T06:14:00;7.50;99.90
10678;DHT22;5387;48.722;9.110;2023-03-29T06:16:27;7.70;99.90
10678;DHT22;5387;48.722;9.110;2023-03-29T06:18:54;7.90;99.90
10678;DHT22;5387;48.722;9.110;2023-03-29T06:21:21;8.00;99.90
10678;DHT22;5387;48.722;9.110;2023-03-29T06:23:49;8.20;99.90
10678;DHT22;5387;48.722;9.110;2023-03-29T06:26:15;8.30;99.90
10678;DHT22;5387;48.722;9.110;2023-03-29T06:28:43;8.50;99.90
10678;DHT22;5387;48.722;9.110;2023-03-29T06:31:12;8.60;99.90
10678;DHT22;5387;48.722;9.110;2023-03-29T06:33:38;8.70;99.90
10678;DHT22;5387;48.722;9.110;2023-03-29T06:36:08;8.70;99.90
10678;DHT22;5387;48.722;9.110;2023-03-29T06:38:35;8.90;99.90
10678;DHT22;5387;48.722;9.110;2023-03-29T06:41:03;9.10;99.90
10678;DHT22;5387;48.722;9.110;2023-03-29T06:43:31;9.10;99.90
10678;DHT22;5387;48.722;9.110;2023-03-29T06:45:59;9.00;99.90
10678;DHT22;5387;48.722;9.110;2023-03-29T06:48:27;9.10;99.90
10678;DHT22;5387;48.722;9.110;2023-03-29T06:50:54;9.10;99.90
10678;DHT22;5387;48.722;9.110;2023-03-29T06:53:21;9.10;99.90
10678;DHT22;5387;48.722;9.110;2023-03-29T06:55:49;8.90;99.90
10678;DHT22;5387;48.722;9.110;2023-03-29T06:58:16;8.80;99.90
10678;DHT22;5387;48.722;9.110;2023-03-29T07:00:43;9.00;99.90
10678;DHT22;5387;48.722;9.110;2023-03-29T07:03:10;9.10;99.90
10678;DHT22;5387;48.722;9.110;2023-03-29T07:05:45;9.20;99.90
10678;DHT22;5387;48.722;9.110;2023-03-29T07:08:12;9.30;99.90
10678;DHT22;5387;48.722;9.110;2023-03-29T07:10:42;9.30;99.90
10678;DHT22;5387;48.722;9.110;2023-03-29T07:13:11;9.30;99.90
10678;DHT22;5387;48.722;9.110;2023-03-29T07:15:39;9.20;99.90
10678;DHT22;5387;48.722;9.110;2023-03-29T07:18:06;9.20;99.90
10678;DHT22;5387;48.722;9.110;2023-03-29T07:20:33;9.40;99.90
10678;DHT22;5387;48.722;9.110;2023-03-29T07:23:01;9.60;99.90
10678;DHT22;5387;48.722;9.110;2023-03-29T07:25:28;9.80;99.90
10678;DHT22;5387;48.722;9.110;2023-03-29T07:27:55;9.90;99.90
10678;DHT22;5387;48.722;9.110;2023-03-29T07:30:24;10.00;99.90
10678;DHT22;5387;48.722;9.110;2023-03-29T07:32:53;10.30;99.90
10678;DHT22;5387;48.722;9.110;2023-03-29T07:35:20;10.40;99.90
10678;DHT22;5387;48.722;9.110;2023-03-29T07:37:48;10.50;99.90
10678;DHT22;5387;48.722;9.110;2023-03-29T07:40:17;10.50;99.90
10678;DHT22;5387;48.722;9.110;2023-03-29T07:42:49;10.40;99.90
10678;DHT22;5387;48.722;9.110;2023-03-29T07:45:17;10.60;99.90
10678;DHT22;5387;48.722;9.110;2023-03-29T07:47:45;10.40;99.90
10678;DHT22;5387;48.722;9.110;2023-03-29T07:50:12;10.40;99.90
10678;DHT22;5387;48.722;9.110;2023-03-29T07:52:39;10.40;99.90
10678;DHT22;5387;48.722;9.110;2023-03-29T07:55:07;10.40;99.90
10678;DHT22;5387;48.722;9.110;2023-03-29T07:57:36;10.40;99.90
10678;DHT22;5387;48.722;9.110;2023-03-29T08:00:04;10.50;99.90
10678;DHT22;5387;48.722;9.110;2023-03-29T08:02:41;10.50;99.90
10678;DHT22;5387;48.722;9.110;2023-03-29T08:05:09;10.60;99.90
10678;DHT22;5387;48.722;9.110;2023-03-29T08:07:37;10.80;99.90
10678;DHT22;5387;48.722;9.110;2023-03-29T08:10:05;10.70;99.90
10678;DHT22;5387;48.722;9.110;2023-03-29T08:12:33;10.90;99.90
10678;DHT22;5387;48.722;9.110;2023-03-29T08:15:02;11.00;99.90
10678;DHT22;5387;48.722;9.110;2023-03-29T08:17:30;11.00;99.90
10678;DHT22;5387;48.722;9.110;2023-03-29T08:19:57;11.10;99.90
10678;DHT22;5387;48.722;9.110;2023-03-29T08:22:24;11.50;99.90
10678;DHT22;5387;48.722;9.110;2023-03-29T08:24:51;11.60;99.90
10678;DHT22;5387;48.722;9.110;2023-03-29T08:27:17;12.00;99.90
10678;DHT22;5387;48.722;9.110;2023-03-29T08:29:44;11.90;99.90
10678;DHT22;5387;48.722;9.110;2023-03-29T08:32:13;11.40;99.90
10678;DHT22;5387;48.722;9.110;2023-03-29T08:34:40;11.20;99.90
10678;DHT22;5387;48.722;9.110;2023-03-29T08:37:06;11.00;99.90
10678;DHT22;5387;48.722;9.110;2023-03-29T08:39:34;10.90;99.90
10678;DHT22;5387;48.722;9.110;2023-03-29T08:42:15;11.00;99.90
10678;DHT22;5387;48.722;9.110;2023-03-29T08:44:54;10.80;99.90
10678;DHT22;5387;48.722;9.110;2023-03-29T08:47:29;10.60;99.90
10678;DHT22;5387;48.722;9.110;2023-03-29T08:50:00;10.70;99.90
10678;DHT22;5387;48.722;9.110;2023-03-29T08:52:32;10.60;99.90
10678;DHT22;5387;48.722;9.110;2023-03-29T08:55:02;10.60;99.90
10678;DHT22;5387;48.722;9.110;2023-03-29T08:57:32;10.30;99.90
10678;DHT22;5387;48.722;9.110;2023-03-29T09:00:04;10.40;99.90
10678;DHT22;5387;48.722;9.110;2023-03-29T09:02:33;10.80;99.90
10678;DHT22;5387;48.722;9.110;2023-03-29T09:05:06;10.90;99.90
10678;DHT22;5387;48.722;9.110;2023-03-29T09:07:34;10.90;99.90
10678;DHT22;5387;48.722;9.110;2023-03-29T09:10:01;11.10;99.90
10678;DHT22;5387;48.722;9.110;2023-03-29T09:12:36;11.40;99.90
10678;DHT22;5387;48.722;9.110;2023-03-29T09:15:10;11.60;99.90
10678;DHT22;5387;48.722;9.110;2023-03-29T09:17:47;11.80;99.90
10678;DHT22;5387;48.722;9.110;2023-03-29T09:20:27;11.70;99.90
10678;DHT22;5387;48.722;9.110;2023-03-29T09:23:04;11.90;99.90
10678;DHT22;5387;48.722;9.110;2023-03-29T09:25:44;11.70;99.90
10678;DHT22;5387;48.722;9.110;2023-03-29T09:28:18;11.50;99.90
10678;DHT22;5387;48.722;9.110;2023-03-29T09:30:50;11.60;99.90
10678;DHT22;5387;48.722;9.110;2023-03-29T09:33:23;11.80;99.90
10678;DHT22;5387;48.722;9.110;2023-03-29T09:35:53;12.00;99.90
10678;DHT22;5387;48.722;9.110;2023-03-29T09:38:21;12.40;99.90
10678;DHT22;5387;48.722;9.110;2023-03-29T09:40:51;12.70;99.90
10678;DHT22;5387;48.722;9.110;2023-03-29T09:43:27;12.30;99.90
10678;DHT22;5387;48.722;9.110;2023-03-29T09:45:56;12.40;99.90
10678;DHT22;5387;48.722;9.110;2023-03-29T09:48:28;12.50;99.90
10678;DHT22;5387;48.722;9.110;2023-03-29T09:50:57;12.70;99.90
10678;DHT22;5387;48.722;9.110;2023-03-29T09:53:26;12.90;99.90
10678;DHT22;5387;48.722;9.110;2023-03-29T09:55:53;13.20;99.90
10678;DHT22;5387;48.722;9.110;2023-03-29T09:58:23;12.80;99.90
10678;DHT22;5387;48.722;9.110;2023-03-29T10:00:52;13.00;99.90
10678;DHT22;5387;48.722;9.110;2023-03-29T10:03:20;12.80;99.90
10678;DHT22;5387;48.722;9.110;2023-03-29T10:05:51;12.80;99.90
10678;DHT22;5387;48.722;9.110;2023-03-29T10:08:22;12.90;99.90
10678;DHT22;5387;48.722;9.110;2023-03-29T10:10:51;13.20;99.90
10678;DHT22;5387;48.722;9.110;2023-03-29T10:13:21;13.20;99.90
10678;DHT22;5387;48.722;9.110;2023-03-29T10:16:02;13.40;99.90
10678;DHT22;5387;48.722;9.110;2023-03-29T10:18:29;13.60;99.90
10678;DHT22;5387;48.722;9.110;2023-03-29T10:21:00;13.70;99.90
10678;DHT22;5387;48.722;9.110;2023-03-29T10:23:30;13.80;99.90
10678;DHT22;5387;48.722;9.110;2023-03-29T10:25:57;14.00;99.90
10678;DHT22;5387;48.722;9.110;2023-03-29T10:28:25;14.10;99.90
10678;DHT22;5387;48.722;9.110;2023-03-29T10:30:57;14.40;99.90
10678;DHT22;5387;48.722;9.110;2023-03-29T10:33:29;14.80;99.90
10678;DHT22;5387;48.722;9.110;2023-03-29T10:35:58;14.80;99.90
10678;DHT22;5387;48.722;9.110;2023-03-29T10:38:27;14.50;99.90
10678;DHT22;5387;48.722;9.110;2023-03-29T10:41:02;14.50;99.90
10678;DHT22;5387;48.722;9.110;2023-03-29T10:43:35;14.90;99.90
10678;DHT22;5387;48.722;9.110;2023-03-29T10:46:06;14.70;99.90
10678;DHT22;5387;48.722;9.110;2023-03-29T10:48:35;14.40;99.90
10678;DHT22;5387;48.722;9.110;2023-03-29T10:51:04;14.40;99.90
10678;DHT22;5387;48.722;9.110;2023-03-29T10:53:33;14.50;99.90
10678;DHT22;5387;48.722;9.110;2023-03-29T10:56:11;14.60;99.90
10678;DHT22;5387;48.722;9.110;2023-03-29T10:58:51;14.40;99.90
10678;DHT22;5387;48.722;9.110;2023-03-29T11:01:28;14.80;99.90
10678;DHT22;5387;48.722;9.110;2023-03-29T11:04:06;14.90;99.90
10678;DHT22;5387;48.722;9.110;2023-03-29T11:06:39;14.70;99.90
10678;DHT22;5387;48.722;9.110;2023-03-29T11:09:18;14.60;99.90
10678;DHT22;5387;48.722;9.110;2023-03-29T11:12:06;14.60;99.90
10678;DHT22;5387;48.722;9.110;2023-03-29T11:14:41;14.60;99.90
10678;DHT22;5387;48.722;9.110;2023-03-29T11:17:24;14.80;99.90
10678;DHT22;5387;48.722;9.110;2023-03-29T11:20:07;14.90;99.90
10678;DHT22;5387;48.722;9.110;2023-03-29T11:22:43;15.10;99.90
10678;DHT22;5387;48.722;9.110;2023-03-29T11:25:22;15.30;99.90
10678;DHT22;5387;48.722;9.110;2023-03-29T11:27:56;15.20;99.90
10678;DHT22;5387;48.722;9.110;2023-03-29T11:30:28;15.10;99.90
10678;DHT22;5387;48.722;9.110;2023-03-29T11:33:06;15.30;99.90
10678;DHT22;5387;48.722;9.110;2023-03-29T11:35:44;15.80;99.90
10678;DHT22;5387;48.722;9.110;2023-03-29T11:38:22;16.60;99.90
10678;DHT22;5387;48.722;9.110;2023-03-29T11:40:56;16.60;99.90
10678;DHT22;5387;48.722;9.110;2023-03-29T11:43:27;16.50;99.90
10678;DHT22;5387;48.722;9.110;2023-03-29T11:46:00;16.30;99.90
10678;DHT22;5387;48.722;9.110;2023-03-29T11:48:30;16.40;99.20
10678;DHT22;5387;48.722;9.110;2023-03-29T11:51:04;16.60;98.50
10678;DHT22;5387;48.722;9.110;2023-03-29T11:53:43;16.50;98.10
10678;DHT22;5387;48.722;9.110;2023-03-29T11:56:16;16.20;97.40
10678;DHT22;5387;48.722;9.110;2023-03-29T11:58:49;16.30;97.70
10678;DHT22;5387;48.722;9.110;2023-03-29T12:01:22;16.40;96.70
10678;DHT22;5387;48.722;9.110;2023-03-29T12:03:55;16.40;97.70
10678;DHT22;5387;48.722;9.110;2023-03-29T12:06:28;16.10;96.70
10678;DHT22;5387;48.722;9.110;2023-03-29T12:08:59;15.90;97.00
10678;DHT22;5387;48.722;9.110;2023-03-29T12:11:32;15.50;97.00
10678;DHT22;5387;48.722;9.110;2023-03-29T12:14:03;15.50;97.70
10678;DHT22;5387;48.722;9.110;2023-03-29T12:16:33;15.40;98.00
10678;DHT22;5387;48.722;9.110;2023-03-29T12:19:04;15.30;97.50
10678;DHT22;5387;48.722;9.110;2023-03-29T12:21:33;15.40;97.10
10678;DHT22;5387;48.722;9.110;2023-03-29T12:24:02;15.50;96.40
10678;DHT22;5387;48.722;9.110;2023-03-29T12:26:54;16.00;97.20
10678;DHT22;5387;48.722;9.110;2023-03-29T12:29:38;16.50;97.00
10678;DHT22;5387;48.722;9.110;2023-03-29T12:32:21;16.10;97.10
10678;DHT22;5387;48.722;9.110;2023-03-29T12:34:59;15.90;96.70
10678;DHT22;5387;48.722;9.110;2023-03-29T12:37:36;15.80;97.30
10678;DHT22;5387;48.722;9.110;2023-03-29T12:40:13;15.50;97.00
10678;DHT22;5387;48.722;9.110;2023-03-29T12:42:45;15.80;97.50
10678;DHT22;5387;48.722;9.110;2023-03-29T12:45:17;15.60;96.40
10678;DHT22;5387;48.722;9.110;2023-03-29T12:47:46;15.70;96.80
10678;DHT22;5387;48.722;9.110;2023-03-29T12:50:23;15.80;97.10
10678;DHT22;5387;48.722;9.110;2023-03-29T12:53:00;15.70;97.60
10678;DHT22;5387;48.722;9.110;2023-03-29T12:55:32;15.40;99.10
10678;DHT22;5387;48.722;9.110;2023-03-29T12:58:02;15.30;99.20
10678;DHT22;5387;48.722;9.110;2023-03-29T13:00:41;15.20;99.90
10678;DHT22;5387;48.722;9.110;2023-03-29T13:03:20;15.30;99.90
10678;DHT22;5387;48.722;9.110;2023-03-29T13:05:58;15.10;99.90
10678;DHT22;5387;48.722;9.110;2023-03-29T13:08:32;15.30;99.90
10678;DHT22;5387;48.722;9.110;2023-03-29T13:11:02;15.10;99.90
10678;DHT22;5387;48.722;9.110;2023-03-29T13:13:32;14.60;99.90
10678;DHT22;5387;48.722;9.110;2023-03-29T13:16:12;14.20;99.90
10678;DHT22;5387;48.722;9.110;2023-03-29T13:18:59;14.40;99.90
10678;DHT22;5387;48.722;9.110;2023-03-29T13:21:34;14.50;99.90
10678;DHT22;5387;48.722;9.110;2023-03-29T13:24:20;14.40;99.90
10678;DHT22;5387;48.722;9.110;2023-03-29T13:26:57;14.00;99.90
10678;DHT22;5387;48.722;9.110;2023-03-29T13:29:39;14.00;99.90
10678;DHT22;5387;48.722;9.110;2023-03-29T13:32:32;13.90;99.90
10678;DHT22;5387;48.722;9.110;2023-03-29T13:35:10;13.90;99.90
10678;DHT22;5387;48.722;9.110;2023-03-29T13:37:51;13.80;99.90
10678;DHT22;5387;48.722;9.110;2023-03-29T13:40:44;14.20;99.90
10678;DHT22;5387;48.722;9.110;2023-03-29T13:43:21;14.30;99.90
10678;DHT22;5387;48.722;9.110;2023-03-29T13:46:20;14.40;99.90
10678;DHT22;5387;48.722;9.110;2023-03-29T13:48:59;14.50;99.90
10678;DHT22;5387;48.722;9.110;2023-03-29T13:51:41;14.40;99.90
10678;DHT22;5387;48.722;9.110;2023-03-29T13:54:17;14.30;99.90
10678;DHT22;5387;48.722;9.110;2023-03-29T13:56:55;14.70;99.90
10678;DHT22;5387;48.722;9.110;2023-03-29T13:59:30;14.80;99.90
10678;DHT22;5387;48.722;9.110;2023-03-29T14:01:59;14.80;99.90
10678;DHT22;5387;48.722;9.110;2023-03-29T14:04:31;14.90;99.90
10678;DHT22;5387;48.722;9.110;2023-03-29T14:07:02;14.40;99.90
10678;DHT22;5387;48.722;9.110;2023-03-29T14:09:33;14.20;99.90
10678;DHT22;5387;48.722;9.110;2023-03-29T14:12:01;13.80;99.90
10678;DHT22;5387;48.722;9.110;2023-03-29T14:14:31;13.80;99.90
10678;DHT22;5387;48.722;9.110;2023-03-29T14:16:59;13.90;99.90
10678;DHT22;5387;48.722;9.110;2023-03-29T14:19:29;14.00;99.90
10678;DHT22;5387;48.722;9.110;2023-03-29T14:21:58;14.20;99.90
10678;DHT22;5387;48.722;9.110;2023-03-29T14:24:27;14.60;99.90
10678;DHT22;5387;48.722;9.110;2023-03-29T14:27:01;14.70;99.90
10678;DHT22;5387;48.722;9.110;2023-03-29T14:29:31;14.90;99.90
10678;DHT22;5387;48.722;9.110;2023-03-29T14:32:08;15.10;99.90
10678;DHT22;5387;48.722;9.110;2023-03-29T14:34:36;15.50;99.90
10678;DHT22;5387;48.722;9.110;2023-03-29T14:37:02;15.40;99.90
10678;DHT22;5387;48.722;9.110;2023-03-29T14:39:32;15.50;99.90
10678;DHT22;5387;48.722;9.110;2023-03-29T14:42:00;15.60;99.90
10678;DHT22;5387;48.722;9.110;2023-03-29T14:44:29;15.70;99.90
10678;DHT22;5387;48.722;9.110;2023-03-29T14:46:58;16.00;99.90
10678;DHT22;5387;48.722;9.110;2023-03-29T14:49:26;16.40;99.90
10678;DHT22;5387;48.722;9.110;2023-03-29T14:51:53;16.80;99.90
10678;DHT22;5387;48.722;9.110;2023-03-29T14:54:22;16.70;99.90
10678;DHT22;5387;48.722;9.110;2023-03-29T14:56:51;16.80;99.90
10678;DHT22;5387;48.722;9.110;2023-03-29T14:59:24;16.70;99.90
10678;DHT22;5387;48.722;9.110;2023-03-29T15:01:51;16.50;99.90
10678;DHT22;5387;48.722;9.110;2023-03-29T15:04:20;16.10;99.90
10678;DHT22;5387;48.722;9.110;2023-03-29T15:06:47;16.20;99.90
10678;DHT22;5387;48.722;9.110;2023-03-29T15:09:18;16.00;99.90
10678;DHT22;5387;48.722;9.110;2023-03-29T15:11:50;15.90;99.90
10678;DHT22;5387;48.722;9.110;2023-03-29T15:14:18;15.80;99.90
10678;DHT22;5387;48.722;9.110;2023-03-29T15:16:46;15.70;99.90
10678;DHT22;5387;48.722;9.110;2023-03-29T15:19:16;15.60;99.90
10678;DHT22;5387;48.722;9.110;2023-03-29T15:21:46;15.60;99.90
10678;DHT22;5387;48.722;9.110;2023-03-29T15:24:20;16.00;99.90
10678;DHT22;5387;48.722;9.110;2023-03-29T15:26:57;16.20;99.90
10678;DHT22;5387;48.722;9.110;2023-03-29T15:29:33;16.40;99.90
10678;DHT22;5387;48.722;9.110;2023-03-29T15:32:00;16.80;99.90
10678;DHT22;5387;48.722;9.110;2023-03-29T15:34:29;16.50;99.90
10678;DHT22;5387;48.722;9.110;2023-03-29T15:36:58;16.40;99.90
10678;DHT22;5387;48.722;9.110;2023-03-29T15:39:26;16.70;99.90
10678;DHT22;5387;48.722;9.110;2023-03-29T15:41:54;16.70;99.90
10678;DHT22;5387;48.722;9.110;2023-03-29T15:44:25;16.50;99.90
10678;DHT22;5387;48.722;9.110;2023-03-29T15:46:52;16.60;99.90
10678;DHT22;5387;48.722;9.110;2023-03-29T15:49:22;16.50;99.90
10678;DHT22;5387;48.722;9.110;2023-03-29T15:51:49;16.60;99.90
10678;DHT22;5387;48.722;9.110;2023-03-29T15:54:18;16.70;99.90
10678;DHT22;5387;48.722;9.110;2023-03-29T15:56:48;16.80;99.90
10678;DHT22;5387;48.722;9.110;2023-03-29T15:59:16;16.90;99.90
10678;DHT22;5387;48.722;9.110;2023-03-29T16:01:44;16.60;99.90
10678;DHT22;5387;48.722;9.110;2023-03-29T16:04:12;16.50;99.90
10678;DHT22;5387;48.722;9.110;2023-03-29T16:06:40;16.50;99.90
10678;DHT22;5387;48.722;9.110;2023-03-29T16:09:07;16.40;99.90
10678;DHT22;5387;48.722;9.110;2023-03-29T16:11:38;16.40;99.90
10678;DHT22;5387;48.722;9.110;2023-03-29T16:14:10;16.30;99.90